Time;durP1;ratioP1;P1;durP2;ratioP2;P2;SDS_P1;SDS_P2;PMS_P1;PMS_P2;Temp;Humidity;BMP_temperature;BMP_pressure;BME280_temperature;BME280_humidity;BME280_pressure;Samples;Min_cycle;Max_cycle;Signal;HPM_P1;HPM_P2
2023/07/30 00:01:01;;;;;;;4.73;2.40;;;20.50;94.00;;;;;;5015802;28;20471;-69
2023/07/30 00:03:28;;;;;;;5.10;2.43;;;20.40;93.90;;;;;;5016337;28;20471;-68
2023/07/30 00:05:55;;;;;;;3.30;2.73;;;20.40;94.00;;;;;;5020318;28;20462;-70
2023/07/30 00:08:22;;;;;;;6.67;2.30;;;20.40;94.00;;;;;;5019126;28;20477;-69
2023/07/30 00:10:49;;;;;;;6.17;2.30;;;20.40;93.90;;;;;;5019751;28;20562;-69
2023/07/30 00:13:17;;;;;;;3.70;2.17;;;20.40;93.90;;;;;;5018857;28;20447;-69
2023/07/30 00:15:43;;;;;;;4.17;2.10;;;20.30;93.90;;;;;;5023471;28;20461;-70
2023/07/30 00:18:13;;;;;;;5.77;2.50;;;20.30;93.90;;;;;;5036413;28;20459;-69
2023/07/30 00:20:41;;;;;;;8.03;2.43;;;20.30;94.00;;;;;;5029665;28;20467;-69
2023/07/30 00:23:10;;;;;;;4.07;2.40;;;20.30;93.90;;;;;;5026159;28;20483;-70
2023/07/30 00:25:37;;;;;;;5.83;2.27;;;20.20;93.70;;;;;;5021743;28;20451;-70
2023/07/30 00:28:04;;;;;;;4.17;2.23;;;20.20;93.80;;;;;;5019855;28;20462;-69
2023/07/30 00:30:39;;;;;;;6.40;3.63;;;20.20;93.80;;;;;;5022225;28;20474;-69
2023/07/30 00:33:06;;;;;;;3.00;2.10;;;20.10;93.30;;;;;;5023330;28;20434;-69
2023/07/30 00:35:35;;;;;;;10.60;2.50;;;20.00;92.90;;;;;;5025899;28;20451;-70
2023/07/30 00:38:02;;;;;;;4.83;2.27;;;19.90;93.00;;;;;;5027692;28;20940;-70
2023/07/30 00:40:31;;;;;;;4.87;2.60;;;19.90;93.40;;;;;;5027863;28;20468;-69
2023/07/30 00:42:57;;;;;;;7.07;2.50;;;19.80;93.60;;;;;;5027208;28;20486;-69
2023/07/30 00:45:25;;;;;;;4.97;2.23;;;19.90;93.70;;;;;;5027016;28;20451;-70
2023/07/30 00:47:52;;;;;;;10.03;3.20;;;19.90;93.80;;;;;;5026409;28;20519;-70
2023/07/30 00:50:21;;;;;;;9.33;2.47;;;19.90;93.90;;;;;;5025687;28;20467;-69
2023/07/30 00:52:52;;;;;;;3.80;2.30;;;19.90;94.00;;;;;;5025935;28;20446;-70
2023/07/30 00:55:19;;;;;;;2.80;1.90;;;19.90;94.00;;;;;;5026704;28;20432;-69
2023/07/30 00:57:46;;;;;;;4.70;2.30;;;20.00;94.10;;;;;;5024395;28;20454;-69
2023/07/30 01:00:15;;;;;;;3.70;2.20;;;19.90;94.10;;;;;;5023367;28;20479;-69
2023/07/30 01:02:43;;;;;;;6.33;2.00;;;20.00;94.10;;;;;;5023096;28;20522;-70
2023/07/30 01:05:10;;;;;;;4.00;2.27;;;20.00;94.20;;;;;;5022225;28;20454;-69
2023/07/30 01:07:39;;;;;;;6.63;2.47;;;19.90;94.10;;;;;;5022188;28;20461;-70
2023/07/30 01:10:09;;;;;;;3.93;2.20;;;19.90;93.90;;;;;;5021574;28;20980;-68
2023/07/30 01:12:36;;;;;;;4.77;2.10;;;19.90;93.90;;;;;;5022429;28;20451;-70
2023/07/30 01:15:06;;;;;;;7.40;2.00;;;19.90;93.50;;;;;;5021160;28;20991;-69
2023/07/30 01:17:34;;;;;;;4.97;2.20;;;19.90;93.00;;;;;;5021439;28;20439;-70
2023/07/30 01:20:01;;;;;;;3.50;2.20;;;19.80;93.10;;;;;;5020870;28;20537;-69
2023/07/30 01:22:29;;;;;;;5.03;1.90;;;19.70;93.00;;;;;;5018531;28;20486;-68
2023/07/30 01:24:58;;;;;;;9.47;2.73;;;19.50;92.90;;;;;;5018534;28;20451;-68
2023/07/30 01:27:31;;;;;;;7.40;2.90;;;19.50;93.50;;;;;;5018895;28;20949;-70
2023/07/30 01:30:07;;;;;;;5.47;2.40;;;19.40;94.00;;;;;;5018513;28;20471;-68
2023/07/30 01:32:35;;;;;;;5.93;2.40;;;19.40;94.30;;;;;;5019547;28;20432;-69
2023/07/30 01:35:06;;;;;;;6.00;2.40;;;19.40;94.20;;;;;;5018990;28;20459;-69
2023/07/30 01:37:35;;;;;;;4.30;2.87;;;19.40;94.90;;;;;;5002071;28;20519;-70
2023/07/30 01:40:02;;;;;;;6.40;2.27;;;19.40;94.90;;;;;;5018896;28;20468;-69
2023/07/30 01:42:30;;;;;;;6.90;2.47;;;19.40;95.00;;;;;;5019087;28;20530;-69
2023/07/30 01:45:00;;;;;;;3.13;2.50;;;19.50;94.90;;;;;;5028160;28;20436;-68
2023/07/30 01:47:26;;;;;;;4.53;2.40;;;19.50;94.60;;;;;;5025096;28;20458;-69
2023/07/30 01:49:53;;;;;;;8.67;2.70;;;19.50;94.70;;;;;;5026972;28;20471;-68
2023/07/30 01:52:20;;;;;;;10.80;3.43;;;19.40;94.60;;;;;;5024338;28;20443;-70
2023/07/30 01:54:48;;;;;;;6.57;3.00;;;19.40;94.70;;;;;;5023132;28;20447;-68
2023/07/30 01:57:16;;;;;;;12.27;4.40;;;19.40;94.50;;;;;;5021410;28;20956;-70
2023/07/30 01:59:43;;;;;;;6.90;2.57;;;19.40;94.70;;;;;;5020612;28;20447;-68
2023/07/30 02:02:10;;;;;;;5.17;2.60;;;19.30;94.30;;;;;;5019066;28;20949;-70
2023/07/30 02:04:36;;;;;;;5.10;2.40;;;19.20;94.10;;;;;;5018627;28;20455;-68
2023/07/30 02:07:03;;;;;;;9.27;3.03;;;19.20;94.50;;;;;;5017486;28;20452;-69
2023/07/30 02:09:30;;;;;;;7.70;2.40;;;19.10;94.70;;;;;;5019029;28;20455;-68
2023/07/30 02:11:58;;;;;;;7.73;3.03;;;19.10;94.50;;;;;;5018574;28;20471;-69
2023/07/30 02:14:26;;;;;;;5.70;2.90;;;19.00;94.70;;;;;;5019105;28;20448;-70
2023/07/30 02:16:53;;;;;;;3.77;2.80;;;19.00;94.80;;;;;;5018782;28;20448;-70
2023/07/30 02:19:20;;;;;;;11.63;3.10;;;18.80;94.90;;;;;;5018762;28;20459;-69
2023/07/30 02:21:48;;;;;;;8.57;3.10;;;18.80;95.10;;;;;;5018117;28;20475;-68
2023/07/30 02:24:15;;;;;;;12.70;3.37;;;18.80;95.50;;;;;;5018302;28;20479;-68
2023/07/30 02:26:42;;;;;;;8.73;3.10;;;18.80;95.50;;;;;;5017890;28;20436;-70
2023/07/30 02:29:10;;;;;;;7.70;3.50;;;18.70;95.40;;;;;;5019216;28;20451;-69
2023/07/30 02:31:37;;;;;;;6.83;3.00;;;18.60;95.60;;;;;;5027306;28;20510;-69
2023/07/30 02:34:04;;;;;;;5.87;2.73;;;18.60;95.80;;;;;;5033340;28;20478;-69
2023/07/30 02:36:30;;;;;;;5.27;2.53;;;18.50;95.90;;;;;;5027230;28;20502;-69
2023/07/30 02:38:58;;;;;;;5.07;3.07;;;18.50;96.10;;;;;;5026060;28;20443;-70
2023/07/30 02:41:26;;;;;;;8.18;3.13;;;18.50;96.30;;;;;;5025936;28;20916;-69
2023/07/30 02:43:53;;;;;;;4.93;2.67;;;18.50;96.40;;;;;;5025131;28;20224;-69
2023/07/30 02:46:21;;;;;;;6.87;3.30;;;18.40;96.30;;;;;;5023232;28;20452;-69
2023/07/30 02:48:48;;;;;;;7.00;3.20;;;18.30;96.30;;;;;;5024014;28;20443;-69
2023/07/30 02:51:16;;;;;;;10.63;4.33;;;18.30;96.40;;;;;;5022065;28;20467;-68
2023/07/30 02:53:47;;;;;;;5.33;2.83;;;18.20;96.70;;;;;;5021412;28;20458;-69
2023/07/30 02:56:14;;;;;;;6.33;3.70;;;18.30;96.60;;;;;;5022044;28;20432;-69
2023/07/30 02:58:41;;;;;;;4.87;3.43;;;18.20;96.50;;;;;;5021003;28;20976;-70
2023/07/30 03:01:09;;;;;;;8.90;2.80;;;18.20;96.30;;;;;;5021433;28;20471;-68
2023/07/30 03:03:37;;;;;;;7.90;3.20;;;18.20;96.10;;;;;;5020612;28;20487;-68
2023/07/30 03:06:04;;;;;;;9.70;2.90;;;18.20;96.60;;;;;;5019928;28;20964;-69
2023/07/30 03:08:32;;;;;;;6.90;3.53;;;18.20;96.10;;;;;;5022026;28;20459;-68
2023/07/30 03:11:00;;;;;;;3.23;2.70;;;18.20;96.30;;;;;;5024916;28;20992;-68
2023/07/30 03:13:27;;;;;;;5.50;2.83;;;18.20;96.10;;;;;;5023191;28;20797;-68
2023/07/30 03:15:58;;;;;;;9.63;3.43;;;18.20;96.30;;;;;;5021259;28;20443;-69
2023/07/30 03:18:25;;;;;;;4.80;2.87;;;18.20;96.40;;;;;;5020343;28;20428;-69
2023/07/30 03:20:59;;;;;;;7.07;3.00;;;18.10;96.40;;;;;;5019665;28;20478;-68
2023/07/30 03:23:26;;;;;;;6.07;3.03;;;18.20;96.60;;;;;;5019063;28;21018;-69
2023/07/30 03:25:54;;;;;;;10.03;3.00;;;18.00;95.70;;;;;;5019167;28;20515;-69
2023/07/30 03:28:21;;;;;;;7.80;2.67;;;18.00;95.80;;;;;;5018728;28;20454;-69
2023/07/30 03:30:48;;;;;;;6.10;2.03;;;18.00;96.10;;;;;;5018230;28;20474;-68
2023/07/30 03:33:16;;;;;;;8.20;2.77;;;17.90;95.70;;;;;;5018548;28;20514;-68
2023/07/30 03:35:44;;;;;;;5.90;2.00;;;17.90;95.90;;;;;;5018834;28;20465;-69
2023/07/30 03:38:14;;;;;;;6.80;2.67;;;17.90;95.60;;;;;;5018295;28;20479;-68
2023/07/30 03:40:42;;;;;;;6.73;2.43;;;17.90;95.90;;;;;;5022421;28;20475;-68
2023/07/30 03:43:10;;;;;;;5.47;2.60;;;18.00;96.10;;;;;;5021921;28;20478;-69
2023/07/30 03:45:38;;;;;;;7.10;2.50;;;18.00;96.00;;;;;;5022547;28;20452;-68
2023/07/30 03:48:05;;;;;;;6.63;2.70;;;18.00;95.80;;;;;;5021808;28;20979;-69
2023/07/30 03:50:36;;;;;;;7.30;2.50;;;18.00;95.70;;;;;;5021788;28;20483;-68
2023/07/30 03:53:04;;;;;;;6.53;2.60;;;18.00;95.90;;;;;;5021170;28;20424;-69
2023/07/30 03:55:32;;;;;;;7.30;2.10;;;18.00;96.20;;;;;;5021176;28;21011;-70
2023/07/30 03:57:59;;;;;;;7.93;2.10;;;18.00;96.40;;;;;;5022193;28;20505;-69
2023/07/30 04:00:26;;;;;;;6.10;2.13;;;18.00;97.00;;;;;;5020575;28;20890;-68
2023/07/30 04:02:53;;;;;;;4.20;2.00;;;17.90;97.60;;;;;;5021027;28;20983;-69
2023/07/30 04:05:20;;;;;;;6.97;2.03;;;17.90;98.10;;;;;;5021159;28;20443;-69
2023/07/30 04:07:46;;;;;;;4.00;2.13;;;17.90;98.30;;;;;;5021520;28;20959;-69
2023/07/30 04:10:13;;;;;;;7.17;2.53;;;17.70;98.50;;;;;;5020608;28;20467;-68
2023/07/30 04:12:42;;;;;;;4.50;1.90;;;17.60;98.60;;;;;;5021203;28;20440;-68
2023/07/30 04:15:09;;;;;;;13.93;2.53;;;17.50;98.70;;;;;;5020708;28;20940;-69
2023/07/30 04:17:37;;;;;;;6.40;2.40;;;17.40;98.60;;;;;;5020259;28;20815;-69
2023/07/30 04:20:06;;;;;;;7.90;2.30;;;17.30;98.20;;;;;;5020508;28;20475;-68
2023/07/30 04:22:33;;;;;;;8.00;2.00;;;17.30;98.30;;;;;;5020640;28;20447;-68
2023/07/30 04:24:59;;;;;;;8.00;1.70;;;17.30;98.50;;;;;;5020102;28;20983;-70
2023/07/30 04:27:26;;;;;;;5.17;1.83;;;17.20;98.30;;;;;;5020559;28;20447;-69
2023/07/30 04:29:54;;;;;;;5.40;1.87;;;17.10;98.30;;;;;;5021127;28;20471;-68
2023/07/30 04:32:21;;;;;;;6.83;1.77;;;17.10;98.50;;;;;;5021443;28;20455;-68
2023/07/30 04:34:48;;;;;;;7.63;2.40;;;17.10;98.70;;;;;;5020871;28;20440;-68
2023/07/30 04:37:15;;;;;;;9.90;3.30;;;17.10;99.10;;;;;;5020728;28;20451;-69
2023/07/30 04:39:45;;;;;;;4.73;1.53;;;17.10;98.90;;;;;;5020435;28;20451;-68
2023/07/30 04:42:13;;;;;;;7.93;2.23;;;17.10;99.00;;;;;;5019857;28;20458;-70
2023/07/30 04:44:40;;;;;;;8.60;1.60;;;17.00;99.30;;;;;;5026862;28;20482;-69
2023/07/30 04:47:09;;;;;;;6.30;1.63;;;16.90;99.80;;;;;;5023219;28;20862;-70
2023/07/30 04:49:36;;;;;;;6.30;1.53;;;16.80;99.90;;;;;;5025974;28;20486;-68
2023/07/30 04:52:04;;;;;;;8.30;1.93;;;16.80;99.90;;;;;;5025127;28;20451;-69
2023/07/30 04:54:31;;;;;;;8.73;2.10;;;16.80;99.90;;;;;;5033779;28;20465;-68
2023/07/30 04:56:57;;;;;;;6.80;1.90;;;16.80;99.90;;;;;;5029897;28;20454;-68
2023/07/30 04:59:25;;;;;;;8.23;1.80;;;16.80;99.90;;;;;;5025818;28;20447;-68
2023/07/30 05:01:56;;;;;;;7.50;1.70;;;16.70;99.90;;;;;;5023950;28;20471;-68
2023/07/30 05:04:24;;;;;;;5.47;1.67;;;16.80;99.90;;;;;;5023451;28;21013;-67
2023/07/30 05:06:51;;;;;;;3.10;1.30;;;16.70;99.90;;;;;;5020724;28;20451;-68
2023/07/30 05:09:17;;;;;;;6.53;1.90;;;16.80;99.90;;;;;;5019849;28;20455;-68
2023/07/30 05:11:44;;;;;;;5.03;2.17;;;16.80;99.90;;;;;;5020378;28;21011;-68
2023/07/30 05:14:11;;;;;;;5.37;1.67;;;16.90;99.90;;;;;;5020128;28;20474;-68
2023/07/30 05:16:39;;;;;;;8.33;1.70;;;16.90;99.90;;;;;;5020058;28;20459;-69
2023/07/30 05:19:06;;;;;;;3.10;1.40;;;17.00;99.90;;;;;;5019306;28;20460;-69
2023/07/30 05:21:34;;;;;;;2.50;1.10;;;17.00;99.90;;;;;;5018698;28;20478;-68
2023/07/30 05:24:01;;;;;;;5.20;1.30;;;17.10;99.90;;;;;;5019005;28;20594;-69
2023/07/30 05:26:28;;;;;;;7.33;1.60;;;17.20;99.90;;;;;;5017238;28;20443;-69
2023/07/30 05:28:56;;;;;;;7.00;1.60;;;17.30;99.90;;;;;;5018370;28;20451;-68
2023/07/30 05:31:23;;;;;;;6.90;1.70;;;17.30;99.90;;;;;;5022853;28;20471;-68
2023/07/30 05:33:50;;;;;;;5.20;2.37;;;17.40;99.90;;;;;;5024521;28;20440;-69
2023/07/30 05:36:17;;;;;;;4.97;1.30;;;17.40;99.90;;;;;;5023331;28;20447;-68
2023/07/30 05:38:45;;;;;;;9.67;2.03;;;17.40;99.90;;;;;;5021765;28;20459;-68
2023/07/30 05:41:12;;;;;;;3.67;1.60;;;17.40;99.90;;;;;;5020495;28;20467;-67
2023/07/30 05:43:39;;;;;;;5.00;1.97;;;17.40;99.90;;;;;;5021087;28;20885;-68
2023/07/30 05:46:08;;;;;;;3.63;1.57;;;17.30;99.90;;;;;;5018985;28;20447;-69
2023/07/30 05:48:35;;;;;;;2.77;1.03;;;17.40;99.90;;;;;;5018659;28;20506;-68
2023/07/30 05:51:01;;;;;;;5.10;1.73;;;17.30;99.80;;;;;;5019031;28;20472;-67
2023/07/30 05:53:28;;;;;;;3.77;1.50;;;17.40;99.90;;;;;;5018507;28;20455;-68
2023/07/30 05:55:56;;;;;;;5.37;1.53;;;17.50;99.90;;;;;;5018719;28;20455;-69
2023/07/30 05:58:23;;;;;;;6.40;1.60;;;17.50;99.70;;;;;;5016632;28;20444;-68
2023/07/30 06:00:50;;;;;;;2.60;1.30;;;17.50;99.20;;;;;;5017540;28;20479;-68
2023/07/30 06:03:17;;;;;;;3.40;1.20;;;17.50;99.00;;;;;;5017001;28;20451;-67
2023/07/30 06:05:43;;;;;;;2.90;1.63;;;17.60;99.20;;;;;;5017211;28;20498;-68
2023/07/30 06:08:10;;;;;;;4.10;1.20;;;17.60;98.90;;;;;;5016137;28;20961;-68
2023/07/30 06:10:37;;;;;;;4.17;1.47;;;17.70;98.80;;;;;;5015501;28;20482;-67
2023/07/30 06:13:06;;;;;;;3.53;1.30;;;17.80;99.10;;;;;;5017259;28;20479;-67
2023/07/30 06:15:33;;;;;;;4.43;1.60;;;18.00;98.90;;;;;;5016359;28;21002;-68
2023/07/30 06:18:01;;;;;;;4.27;2.13;;;18.00;98.70;;;;;;5016675;28;20539;-68
2023/07/30 06:20:28;;;;;;;5.00;1.87;;;18.10;98.30;;;;;;5017355;28;20479;-68
2023/07/30 06:22:56;;;;;;;7.33;1.70;;;18.10;98.30;;;;;;5017934;28;20462;-67
2023/07/30 06:25:24;;;;;;;6.10;1.67;;;18.10;98.50;;;;;;5017349;28;20483;-69
2023/07/30 06:27:54;;;;;;;5.87;1.90;;;18.20;98.20;;;;;;5017285;28;20459;-69
2023/07/30 06:30:23;;;;;;;6.40;2.17;;;18.30;98.10;;;;;;5015701;28;20485;-67
2023/07/30 06:32:50;;;;;;;6.10;1.93;;;18.30;97.70;;;;;;5016958;28;20506;-68
2023/07/30 06:35:17;;;;;;;7.33;1.73;;;18.30;97.70;;;;;;5017174;28;20447;-68
2023/07/30 06:37:45;;;;;;;7.60;2.83;;;18.30;97.80;;;;;;5016024;28;20451;-68
2023/07/30 06:40:12;;;;;;;5.40;1.80;;;18.40;98.10;;;;;;5016591;28;20470;-68
2023/07/30 06:42:39;;;;;;;5.57;1.90;;;18.40;98.00;;;;;;5015984;28;20448;-68
2023/07/30 06:45:07;;;;;;;5.73;1.53;;;18.40;97.60;;;;;;5015596;28;20475;-69
2023/07/30 06:47:36;;;;;;;5.40;1.73;;;18.50;97.50;;;;;;5016331;28;20459;-69
2023/07/30 06:50:03;;;;;;;10.07;1.97;;;18.60;97.60;;;;;;5015901;28;20482;-68
2023/07/30 06:52:31;;;;;;;5.80;1.80;;;18.60;97.20;;;;;;5017516;28;20491;-68
2023/07/30 06:54:59;;;;;;;7.07;2.20;;;18.70;96.90;;;;;;5017368;28;20444;-69
2023/07/30 06:57:25;;;;;;;6.33;2.50;;;18.70;97.20;;;;;;5017611;28;20453;-69
2023/07/30 06:59:52;;;;;;;6.83;2.43;;;18.90;96.60;;;;;;5019236;28;20489;-68
2023/07/30 07:02:21;;;;;;;7.67;2.37;;;18.90;96.30;;;;;;5023561;28;20475;-69
2023/07/30 07:04:49;;;;;;;7.37;3.27;;;18.90;96.40;;;;;;5023993;28;20475;-68
2023/07/30 07:07:23;;;;;;;7.80;2.27;;;18.90;96.10;;;;;;5026373;28;20518;-69
2023/07/30 07:09:51;;;;;;;8.90;2.50;;;18.80;95.60;;;;;;5024607;28;20481;-68
2023/07/30 07:12:18;;;;;;;9.80;2.70;;;18.80;96.10;;;;;;5025941;28;20447;-68
2023/07/30 07:14:46;;;;;;;7.30;2.13;;;19.00;96.10;;;;;;5030298;28;20443;-69
2023/07/30 07:17:14;;;;;;;6.00;2.13;;;19.00;95.80;;;;;;5033256;28;20577;-69
2023/07/30 07:19:42;;;;;;;7.07;2.23;;;19.00;95.70;;;;;;5028112;28;20497;-68
2023/07/30 07:22:14;;;;;;;9.60;2.53;;;19.00;95.90;;;;;;5025555;28;20462;-68
2023/07/30 07:24:43;;;;;;;8.83;2.70;;;19.00;95.90;;;;;;5023869;28;20467;-69
2023/07/30 07:27:12;;;;;;;8.80;2.50;;;19.10;95.50;;;;;;5022204;28;20448;-69
2023/07/30 07:29:39;;;;;;;8.53;2.63;;;19.30;96.40;;;;;;5021941;28;20798;-68
2023/07/30 07:32:06;;;;;;;7.80;2.40;;;19.40;95.70;;;;;;5021554;28;20447;-69
2023/07/30 07:34:33;;;;;;;9.87;2.80;;;19.50;95.40;;;;;;5020182;28;20443;-68
2023/07/30 07:37:02;;;;;;;12.50;2.60;;;19.60;95.20;;;;;;5018210;28;20458;-69
2023/07/30 07:39:30;;;;;;;5.80;3.20;;;19.60;94.90;;;;;;5019221;28;20458;-69
2023/07/30 07:41:57;;;;;;;10.83;2.67;;;19.70;95.00;;;;;;5026898;28;20466;-68
2023/07/30 07:44:24;;;;;;;10.80;3.37;;;19.60;94.20;;;;;;5025459;28;20490;-69
2023/07/30 07:46:51;;;;;;;8.60;3.40;;;19.60;94.60;;;;;;5023766;28;20542;-69
2023/07/30 07:49:18;;;;;;;13.43;3.60;;;19.60;94.80;;;;;;5020541;28;20450;-69
2023/07/30 07:51:45;;;;;;;10.77;2.70;;;19.60;94.60;;;;;;5020855;28;20471;-68
2023/07/30 07:54:13;;;;;;;8.73;2.70;;;19.60;94.80;;;;;;5023023;28;20455;-69
2023/07/30 07:56:41;;;;;;;9.97;2.30;;;19.70;94.70;;;;;;5019845;28;20451;-69
2023/07/30 07:59:11;;;;;;;8.10;3.23;;;19.60;94.40;;;;;;5019221;28;20509;-68
2023/07/30 08:01:38;;;;;;;9.97;2.50;;;19.70;95.10;;;;;;5017607;28;20561;-69
2023/07/30 08:04:05;;;;;;;7.67;2.70;;;19.60;94.60;;;;;;5017078;28;20447;-68
2023/07/30 08:06:33;;;;;;;7.20;2.30;;;19.50;95.10;;;;;;5017126;28;20459;-70
2023/07/30 08:09:01;;;;;;;11.43;2.60;;;19.50;95.20;;;;;;5016981;28;20457;-69
2023/07/30 08:11:30;;;;;;;10.33;3.70;;;19.50;94.90;;;;;;5017195;28;20490;-70
2023/07/30 08:14:00;;;;;;;8.77;2.47;;;19.50;95.40;;;;;;5016227;28;20459;-69
2023/07/30 08:16:28;;;;;;;7.77;3.00;;;19.60;95.10;;;;;;5016424;28;20454;-69
2023/07/30 08:18:55;;;;;;;8.27;2.57;;;19.50;95.20;;;;;;5016102;28;20455;-70
2023/07/30 08:21:21;;;;;;;9.03;2.37;;;19.70;95.50;;;;;;5016448;28;20468;-69
2023/07/30 08:23:48;;;;;;;10.30;2.77;;;19.80;95.00;;;;;;5015958;28;20460;-69
2023/07/30 08:26:15;;;;;;;9.77;2.70;;;20.00;94.60;;;;;;5019204;28;20483;-70
2023/07/30 08:28:43;;;;;;;8.23;3.23;;;20.10;93.90;;;;;;5019652;28;20616;-69
2023/07/30 08:31:14;;;;;;;4.17;2.13;;;20.10;93.10;;;;;;5019537;28;20474;-69
2023/07/30 08:33:41;;;;;;;9.80;2.30;;;20.10;93.20;;;;;;5020545;28;20451;-69
2023/07/30 08:36:08;;;;;;;11.53;2.70;;;20.20;93.60;;;;;;5019284;28;20443;-70
2023/07/30 08:38:34;;;;;;;8.70;3.50;;;20.30;92.80;;;;;;5019518;28;20451;-70
2023/07/30 08:41:01;;;;;;;11.40;3.00;;;20.40;93.20;;;;;;5019009;28;20482;-69
2023/07/30 08:43:30;;;;;;;10.17;2.80;;;20.50;92.50;;;;;;5019274;28;20531;-69
2023/07/30 08:45:56;;;;;;;6.10;2.27;;;20.40;91.40;;;;;;5019983;28;20486;-70
2023/07/30 08:48:26;;;;;;;9.10;2.73;;;20.40;92.60;;;;;;5021745;28;20451;-70
2023/07/30 08:51:00;;;;;;;9.40;2.30;;;20.30;91.80;;;;;;5019236;28;20479;-68
2023/07/30 08:53:27;;;;;;;8.57;2.90;;;20.20;92.10;;;;;;5021443;28;20891;-69
2023/07/30 08:55:56;;;;;;;10.57;3.07;;;20.20;93.00;;;;;;5019740;28;21014;-69
2023/07/30 08:58:26;;;;;;;11.90;2.40;;;20.20;92.80;;;;;;5017149;28;20447;-68
2023/07/30 09:00:56;;;;;;;11.00;2.80;;;20.20;92.60;;;;;;5019532;28;20471;-69
2023/07/30 09:03:27;;;;;;;11.40;2.83;;;20.10;92.10;;;;;;5018979;28;20502;-68
2023/07/30 09:05:55;;;;;;;21.77;3.20;;;20.10;92.00;;;;;;5018112;28;20830;-69
2023/07/30 09:08:24;;;;;;;10.03;2.37;;;20.10;91.70;;;;;;5019578;28;20462;-70
2023/07/30 09:10:51;;;;;;;11.90;2.37;;;20.20;91.80;;;;;;5019732;28;20475;-69
2023/07/30 09:13:23;;;;;;;9.10;2.20;;;20.50;92.40;;;;;;5020847;28;20447;-69
2023/07/30 09:15:50;;;;;;;7.20;2.63;;;21.00;92.10;;;;;;5020843;28;20480;-69
2023/07/30 09:18:18;;;;;;;12.60;2.23;;;21.20;88.90;;;;;;5019774;28;20452;-70
2023/07/30 09:20:51;;;;;;;4.00;1.90;;;21.40;88.40;;;;;;5019895;28;20471;-69
2023/07/30 09:23:18;;;;;;;7.00;2.27;;;21.60;86.30;;;;;;5019606;28;20447;-69
2023/07/30 09:25:50;;;;;;;6.90;2.53;;;21.90;85.60;;;;;;5022052;28;21030;-70
2023/07/30 09:28:19;;;;;;;6.53;1.90;;;21.90;83.00;;;;;;5023877;28;20523;-70
2023/07/30 09:30:50;;;;;;;9.87;2.80;;;21.80;84.20;;;;;;5025033;28;20473;-69
2023/07/30 09:33:21;;;;;;;11.80;2.80;;;21.70;81.90;;;;;;5025120;28;20452;-69
2023/07/30 09:35:53;;;;;;;5.80;2.00;;;21.60;83.50;;;;;;5026778;28;20944;-70
2023/07/30 09:38:20;;;;;;;11.20;2.83;;;21.50;84.40;;;;;;5034333;28;20434;-70
2023/07/30 09:40:49;;;;;;;6.30;2.07;;;21.70;84.80;;;;;;5031454;28;20464;-69
2023/07/30 09:43:16;;;;;;;9.47;2.50;;;21.80;83.60;;;;;;5028004;28;20522;-69
2023/07/30 09:45:47;;;;;;;14.67;3.50;;;22.00;82.00;;;;;;5025980;28;20495;-70
2023/07/30 09:48:16;;;;;;;4.90;2.00;;;22.10;82.30;;;;;;5023964;28;20457;-70
2023/07/30 09:50:44;;;;;;;8.37;2.37;;;22.20;80.50;;;;;;5023254;28;20471;-69
2023/07/30 09:53:16;;;;;;;4.93;1.80;;;22.50;82.40;;;;;;5023138;28;20452;-69
2023/07/30 09:55:43;;;;;;;5.73;2.20;;;22.80;78.50;;;;;;5022278;28;20432;-70
2023/07/30 09:58:12;;;;;;;8.97;1.83;;;22.90;78.70;;;;;;5022518;28;20455;-70
2023/07/30 10:00:39;;;;;;;5.80;2.00;;;23.20;76.40;;;;;;5021317;28;20514;-69
2023/07/30 10:03:08;;;;;;;6.60;1.97;;;23.50;75.70;;;;;;5019021;28;20451;-69
2023/07/30 10:05:38;;;;;;;5.40;1.87;;;23.90;74.90;;;;;;5019239;28;20483;-70
2023/07/30 10:08:15;;;;;;;2.43;1.53;;;24.50;68.90;;;;;;5018036;28;20455;-70
2023/07/30 10:10:47;;;;;;;3.83;1.40;;;24.80;68.00;;;;;;5018078;28;20467;-69
2023/07/30 10:13:16;;;;;;;5.30;1.57;;;24.90;63.30;;;;;;5017953;28;20837;-69
2023/07/30 10:15:45;;;;;;;5.87;1.60;;;24.90;64.60;;;;;;5020280;28;20457;-71
2023/07/30 10:18:13;;;;;;;5.70;1.80;;;24.90;63.00;;;;;;5024789;28;20451;-70
2023/07/30 10:20:41;;;;;;;4.60;1.80;;;25.10;63.40;;;;;;5022912;28;20478;-71
2023/07/30 10:23:09;;;;;;;5.70;1.33;;;25.20;62.70;;;;;;5020497;28;20451;-70
2023/07/30 10:25:55;;;;;;;5.60;1.93;;;25.10;60.20;;;;;;5018441;28;20475;-70
2023/07/30 10:28:33;;;;;;;5.97;1.70;;;25.00;59.40;;;;;;5017834;28;20446;-69
2023/07/30 10:31:03;;;;;;;5.10;2.07;;;25.10;61.80;;;;;;5017384;28;20890;-70
2023/07/30 10:33:46;;;;;;;8.43;1.63;;;25.60;62.00;;;;;;5017199;28;20462;-69
2023/07/30 10:36:14;;;;;;;4.77;1.90;;;26.00;58.00;;;;;;5017008;28;20814;-70
2023/07/30 10:38:42;;;;;;;3.07;1.60;;;26.30;56.50;;;;;;5030339;28;20448;-70
2023/07/30 10:41:12;;;;;;;9.23;1.60;;;26.50;57.00;;;;;;5026808;28;20471;-70
2023/07/30 10:43:42;;;;;;;7.50;1.40;;;26.60;52.40;;;;;;5024470;28;20909;-70
2023/07/30 10:46:10;;;;;;;4.13;1.40;;;26.90;52.70;;;;;;5020760;28;20498;-71
2023/07/30 10:48:38;;;;;;;5.70;1.37;;;27.00;51.00;;;;;;5019218;28;20459;-70
2023/07/30 10:51:07;;;;;;;4.93;1.60;;;26.50;51.40;;;;;;5016771;28;20463;-69
2023/07/30 10:53:35;;;;;;;4.93;1.60;;;26.00;53.50;;;;;;5016513;28;20459;-69
2023/07/30 10:56:04;;;;;;;5.20;1.83;;;25.60;54.50;;;;;;5016912;28;20448;-70
2023/07/30 10:58:36;;;;;;;3.50;1.40;;;25.10;55.80;;;;;;5016855;28;20455;-70
2023/07/30 11:01:04;;;;;;;5.10;1.70;;;24.60;56.50;;;;;;5017845;28;21043;-70
2023/07/30 11:03:32;;;;;;;4.30;1.40;;;24.00;56.90;;;;;;5016569;28;20835;-69
2023/07/30 11:06:00;;;;;;;4.90;1.60;;;23.60;57.70;;;;;;5013837;28;20502;-69
2023/07/30 11:08:37;;;;;;;6.87;1.77;;;23.50;61.90;;;;;;5013920;28;20448;-70
2023/07/30 11:11:05;;;;;;;6.53;1.80;;;23.10;60.80;;;;;;5013466;28;20486;-70
2023/07/30 11:13:37;;;;;;;6.73;1.90;;;23.10;63.80;;;;;;5013744;28;20534;-70
2023/07/30 11:16:06;;;;;;;3.90;1.60;;;23.90;62.70;;;;;;5014607;28;20459;-70
2023/07/30 11:18:33;;;;;;;8.90;2.20;;;24.70;59.40;;;;;;5013439;28;20956;-70
2023/07/30 11:21:04;;;;;;;7.73;1.77;;;24.70;58.00;;;;;;5013447;28;20503;-70
2023/07/30 11:23:31;;;;;;;4.20;2.00;;;24.10;59.00;;;;;;5013229;28;20459;-70
2023/07/30 11:25:57;;;;;;;8.30;1.87;;;23.80;62.00;;;;;;5014285;28;20490;-70
2023/07/30 11:28:31;;;;;;;6.27;1.90;;;23.40;62.40;;;;;;5012202;28;20828;-71
2023/07/30 11:31:05;;;;;;;4.47;1.40;;;23.10;67.60;;;;;;5013440;28;20490;-70
2023/07/30 11:33:32;;;;;;;5.03;2.00;;;23.00;68.40;;;;;;5013539;28;20436;-70
2023/07/30 11:36:01;;;;;;;7.00;1.40;;;23.30;68.90;;;;;;5013700;28;20448;-70
2023/07/30 11:38:28;;;;;;;6.03;1.90;;;23.80;66.40;;;;;;5013501;28;20892;-70
2023/07/30 11:40:56;;;;;;;7.20;1.87;;;23.90;62.60;;;;;;5013444;28;20471;-70
2023/07/30 11:43:23;;;;;;;6.50;2.00;;;23.70;64.00;;;;;;5013424;28;20455;-70
2023/07/30 11:46:07;;;;;;;7.77;1.77;;;23.50;65.00;;;;;;5013404;28;20901;-70
2023/07/30 11:48:35;;;;;;;4.93;1.60;;;23.30;67.50;;;;;;5012291;28;20439;-70
2023/07/30 11:51:02;;;;;;;2.70;1.40;;;23.10;66.50;;;;;;5013283;28;20506;-70
2023/07/30 11:53:51;;;;;;;8.70;1.63;;;22.90;72.40;;;;;;5013357;28;20455;-70
2023/07/30 11:56:18;;;;;;;5.97;1.60;;;22.70;70.90;;;;;;5013091;28;20451;-70
2023/07/30 11:58:45;;;;;;;4.30;1.23;;;22.50;70.80;;;;;;5017963;28;20506;-71
2023/07/30 12:01:12;;;;;;;4.60;1.20;;;22.30;67.70;;;;;;5027744;28;20471;-70
2023/07/30 12:03:41;;;;;;;2.63;0.90;;;21.80;66.60;;;;;;5022826;28;20447;-70
2023/07/30 12:06:08;;;;;;;3.23;0.80;;;21.50;68.80;;;;;;5019358;28;20553;-70
2023/07/30 12:08:36;;;;;;;4.53;1.30;;;21.40;72.50;;;;;;5018207;28;20541;-70
2023/07/30 12:11:04;;;;;;;3.40;1.03;;;21.40;74.30;;;;;;5018292;28;20467;-70
2023/07/30 12:13:31;;;;;;;2.30;0.80;;;22.10;72.60;;;;;;5018676;28;20536;-70
2023/07/30 12:15:58;;;;;;;4.10;1.10;;;22.80;70.50;;;;;;5018023;28;20451;-70
2023/07/30 12:18:26;;;;;;;5.40;1.00;;;23.20;67.10;;;;;;5017834;28;20466;-70
2023/07/30 12:20:56;;;;;;;6.60;1.60;;;23.20;63.30;;;;;;5016946;28;21080;-71
2023/07/30 12:23:22;;;;;;;3.33;1.30;;;23.20;64.60;;;;;;5016532;28;20455;-70
2023/07/30 12:25:49;;;;;;;5.10;1.47;;;23.10;62.10;;;;;;5016844;28;20482;-70
2023/07/30 12:28:16;;;;;;;4.90;2.20;;;23.00;64.80;;;;;;5017519;28;20829;-70
2023/07/30 12:30:43;;;;;;;6.23;1.40;;;23.00;64.00;;;;;;5016993;28;20470;-70
2023/07/30 12:33:09;;;;;;;4.53;1.23;;;23.50;61.20;;;;;;5016753;28;20451;-70
2023/07/30 12:35:36;;;;;;;9.83;1.40;;;23.90;60.70;;;;;;5016300;28;20462;-70
2023/07/30 12:38:04;;;;;;;6.17;1.37;;;23.70;60.30;;;;;;5017764;28;20455;-70
2023/07/30 12:40:33;;;;;;;4.67;1.53;;;23.50;63.00;;;;;;5016490;28;20859;-71
2023/07/30 12:43:01;;;;;;;5.27;1.37;;;23.30;65.30;;;;;;5016024;28;21011;-70
2023/07/30 12:45:28;;;;;;;6.67;1.40;;;23.00;68.20;;;;;;5015780;28;20451;-71
2023/07/30 12:47:55;;;;;;;3.30;1.40;;;22.70;70.30;;;;;;5016430;28;20459;-71
2023/07/30 12:50:21;;;;;;;3.77;1.23;;;22.60;72.20;;;;;;5016124;28;20474;-71